Time;durP1;ratioP1;P1;durP2;ratioP2;P2;SDS_P1;SDS_P2;PMS_P1;PMS_P2;Temp;Humidity;BMP_temperature;BMP_pressure;BME280_temperature;BME280_humidity;BME280_pressure;Samples;Min_cycle;Max_cycle;Signal;HPM_P1;HPM_P2
2023/03/19 00:00:29;;;;;;;;;;;;;;;16.29;69.27;101667.84;7403361;19;1716;-49
2023/03/19 00:03:00;;;;;;;;;;;;;;;16.29;69.15;101666.06;7402733;19;2263;-49
2023/03/19 00:05:28;;;;;;;;;;;;;;;16.26;68.84;101676.91;7404276;19;2003;-49
2023/03/19 00:07:57;;;;;;;;;;;;;;;16.26;69.02;101668.91;7403100;19;2039;-49
2023/03/19 00:10:25;;;;;;;;;;;;;;;16.26;68.83;101665.38;7404770;19;1023;-49
2023/03/19 00:12:53;;;;;;;;;;;;;;;16.24;69.01;101668.16;7403501;19;1909;-49
2023/03/19 00:15:22;;;;;;;;;;;;;;;16.22;69.15;101670.06;7403188;19;2194;-49
2023/03/19 00:17:50;;;;;;;;;;;;;;;16.19;69.46;101664.88;7403305;19;1773;-50
2023/03/19 00:20:21;;;;;;;;;;;;;;;16.22;69.04;101654.03;7402955;19;1728;-49
2023/03/19 00:22:50;;;;;;;;;;;;;;;16.22;69.31;101653.19;7401488;19;1877;-50
2023/03/19 00:25:18;;;;;;;;;;;;;;;16.21;68.85;101672.81;7402249;19;2003;-49
2023/03/19 00:27:46;;;;;;;;;;;;;;;16.16;69.14;101651.75;7402880;19;1961;-50
2023/03/19 00:30:15;;;;;;;;;;;;;;;16.20;69.17;101649.75;7402347;19;1067;-49
2023/03/19 00:32:44;;;;;;;;;;;;;;;16.20;68.98;101652.44;7403398;19;1703;-49
2023/03/19 00:35:13;;;;;;;;;;;;;;;16.19;69.13;101640.03;7402520;19;1739;-49
2023/03/19 00:37:43;;;;;;;;;;;;;;;16.14;68.82;101634.13;7401128;19;1866;-49
2023/03/19 00:40:13;;;;;;;;;;;;;;;16.17;69.03;101652.59;7401939;19;1159;-49
2023/03/19 00:42:43;;;;;;;;;;;;;;;16.16;69.03;101634.91;7401117;19;2236;-49
2023/03/19 00:45:12;;;;;;;;;;;;;;;16.15;69.32;101638.50;7402772;19;2045;-49
2023/03/19 00:47:41;;;;;;;;;;;;;;;16.17;69.02;101656.13;7402494;19;2354;-49
2023/03/19 00:50:09;;;;;;;;;;;;;;;16.16;69.09;101646.41;7402032;19;1896;-49
2023/03/19 00:52:38;;;;;;;;;;;;;;;16.18;69.20;101635.66;7401932;19;2012;-49
2023/03/19 00:55:09;;;;;;;;;;;;;;;16.19;68.88;101646.22;7400752;19;2056;-49
2023/03/19 00:57:38;;;;;;;;;;;;;;;16.21;68.85;101635.44;7400889;19;2042;-50
2023/03/19 01:00:07;;;;;;;;;;;;;;;16.22;68.84;101645.19;7403056;19;1054;-49
2023/03/19 01:02:35;;;;;;;;;;;;;;;16.21;68.61;101644.31;7401622;19;2255;-50
2023/03/19 01:05:04;;;;;;;;;;;;;;;16.19;68.99;101632.03;7400817;19;1988;-49
2023/03/19 01:07:32;;;;;;;;;;;;;;;16.19;69.15;101635.53;7400223;19;2034;-50
2023/03/19 01:10:00;;;;;;;;;;;;;;;16.17;68.87;101623.25;7401539;19;1117;-49
2023/03/19 01:12:31;;;;;;;;;;;;;;;16.13;69.05;101617.25;7401322;19;2313;-49
2023/03/19 01:14:59;;;;;;;;;;;;;;;16.16;68.79;101634.91;7402056;19;2120;-49
2023/03/19 01:17:28;;;;;;;;;;;;;;;16.14;68.89;101640.31;7400757;19;2118;-49
2023/03/19 01:19:56;;;;;;;;;;;;;;;16.13;69.18;101630.59;7400391;19;1668;-50
2023/03/19 01:22:25;;;;;;;;;;;;;;;16.17;69.09;101632.09;7400335;19;1843;-49
2023/03/19 01:24:53;;;;;;;;;;;;;;;16.29;68.61;101634.03;7399954;19;2050;-50
2023/03/19 01:27:22;;;;;;;;;;;;;;;16.44;68.14;101629.53;7400798;19;2052;-50
2023/03/19 01:29:53;;;;;;;;;;;;;;;16.37;68.06;101633.53;7402175;19;1696;-50
2023/03/19 01:32:22;;;;;;;;;;;;;;;16.32;68.19;101638.31;7400047;19;2138;-49
2023/03/19 01:34:50;;;;;;;;;;;;;;;16.28;68.32;101642.97;7401986;19;2039;-50
2023/03/19 01:37:18;;;;;;;;;;;;;;;16.36;68.32;101636.31;7400841;19;2055;-49
2023/03/19 01:39:46;;;;;;;;;;;;;;;16.48;68.28;101627.53;7401465;19;1445;-50
2023/03/19 01:42:15;;;;;;;;;;;;;;;16.47;67.80;101618.66;7398754;19;2258;-50
2023/03/19 01:44:43;;;;;;;;;;;;;;;16.39;68.23;101630.75;7400944;19;1832;-49
2023/03/19 01:47:17;;;;;;;;;;;;;;;16.34;68.32;101639.06;7400136;19;2043;-49
2023/03/19 01:49:47;;;;;;;;;;;;;;;16.32;68.73;101637.47;7400693;19;2102;-50
2023/03/19 01:52:16;;;;;;;;;;;;;;;16.43;68.17;101626.94;7401257;19;2066;-49
2023/03/19 01:54:45;;;;;;;;;;;;;;;16.57;67.77;101632.25;7400635;19;1809;-50
2023/03/19 01:57:15;;;;;;;;;;;;;;;16.48;67.64;101617.69;7400337;19;2144;-49
2023/03/19 01:59:45;;;;;;;;;;;;;;;16.48;68.09;101617.69;7400499;19;1043;-50
2023/03/19 02:02:20;;;;;;;;;;;;;;;16.45;67.90;101622.38;7399502;19;2211;-50
2023/03/19 02:04:52;;;;;;;;;;;;;;;16.47;67.79;101636.47;7400812;19;1745;-50
2023/03/19 02:07:22;;;;;;;;;;;;;;;16.54;67.90;101611.09;7400194;19;1776;-50
2023/03/19 02:09:50;;;;;;;;;;;;;;;16.58;67.87;101620.63;7400658;19;1458;-49
2023/03/19 02:12:19;;;;;;;;;;;;;;;16.52;67.92;101614.84;7398852;19;2142;-49
2023/03/19 02:14:47;;;;;;;;;;;;;;;16.46;68.15;101624.94;7399513;19;1912;-50
2023/03/19 02:17:18;;;;;;;;;;;;;;;16.40;68.04;101624.47;7399651;19;1891;-49
2023/03/19 02:19:50;;;;;;;;;;;;;;;16.42;68.29;101626.09;7399278;19;2133;-49
2023/03/19 02:22:21;;;;;;;;;;;;;;;16.50;68.13;101609.59;7405390;19;1784;-49
2023/03/19 02:24:53;;;;;;;;;;;;;;;16.53;67.96;101625.41;7404949;19;1862;-50
2023/03/19 02:27:24;;;;;;;;;;;;;;;16.52;68.04;101628.19;7407170;19;1674;-49
2023/03/19 02:29:53;;;;;;;;;;;;;;;16.41;68.01;101627.06;7407721;19;1011;-49
2023/03/19 02:32:21;;;;;;;;;;;;;;;16.35;67.97;101629.25;7403031;19;1844;-50
2023/03/19 02:34:49;;;;;;;;;;;;;;;16.33;68.12;101636.50;7403758;19;2013;-50
2023/03/19 02:37:20;;;;;;;;;;;;;;;16.45;67.86;101622.38;7403910;19;1729;-49
2023/03/19 02:39:53;;;;;;;;;;;;;;;16.54;67.51;101626.28;7404225;19;2002;-50
2023/03/19 02:42:26;;;;;;;;;;;;;;;16.50;67.80;101620.28;7403020;19;1867;-50
2023/03/19 02:44:54;;;;;;;;;;;;;;;16.47;67.90;101620.44;7401540;19;2072;-49
2023/03/19 02:47:22;;;;;;;;;;;;;;;16.36;68.10;101617.63;7404964;19;1699;-50
2023/03/19 02:49:50;;;;;;;;;;;;;;;16.52;67.54;101626.38;7404651;19;1921;-50
2023/03/19 02:52:19;;;;;;;;;;;;;;;17.29;65.43;101608.00;7404098;19;1956;-49
2023/03/19 02:54:47;;;;;;;;;;;;;;;18.47;61.90;101601.56;7403476;19;1524;-50
2023/03/19 02:57:16;;;;;;;;;;;;;;;19.32;59.82;101614.06;7403356;19;2196;-50
2023/03/19 02:59:47;;;;;;;;;;;;;;;19.54;58.96;101618.66;7403458;19;2049;-49
2023/03/19 03:02:15;;;;;;;;;;;;;;;19.54;59.12;101610.59;7403848;19;2025;-50
2023/03/19 03:04:43;;;;;;;;;;;;;;;19.15;60.18;101623.38;7400728;19;2079;-50
2023/03/19 03:07:12;;;;;;;;;;;;;;;19.38;59.69;101617.13;7403420;19;1924;-50
2023/03/19 03:09:40;;;;;;;;;;;;;;;19.50;59.57;101620.72;7402820;19;2053;-50
2023/03/19 03:12:09;;;;;;;;;;;;;;;19.39;59.63;101626.88;7404359;19;1006;-49
2023/03/19 03:14:38;;;;;;;;;;;;;;;19.38;59.69;101614.47;7401431;19;2093;-49
2023/03/19 03:17:09;;;;;;;;;;;;;;;19.31;60.02;101621.25;7401716;19;1968;-49
2023/03/19 03:19:38;;;;;;;;;;;;;;;19.42;59.55;101618.63;7401832;19;1711;-49
2023/03/19 03:22:06;;;;;;;;;;;;;;;19.70;58.93;101629.91;7403725;19;1652;-49
2023/03/19 03:24:35;;;;;;;;;;;;;;;19.86;58.20;101627.75;7400400;19;1834;-49
2023/03/19 03:27:03;;;;;;;;;;;;;;;19.96;57.92;101635.94;7402209;19;1891;-49
2023/03/19 03:29:32;;;;;;;;;;;;;;;19.95;58.20;101633.38;7403334;19;1648;-48
2023/03/19 03:32:00;;;;;;;;;;;;;;;20.05;58.03;101639.72;7401361;19;2143;-49
2023/03/19 03:34:31;;;;;;;;;;;;;;;20.07;57.90;101629.72;7402144;19;2034;-49
2023/03/19 03:36:59;;;;;;;;;;;;;;;20.11;57.95;101633.00;7402235;19;1741;-49
2023/03/19 03:39:28;;;;;;;;;;;;;;;20.08;58.06;101634.13;7400650;19;1106;-49
2023/03/19 03:41:56;;;;;;;;;;;;;;;20.19;57.66;101650.25;7399878;19;1841;-50
2023/03/19 03:44:25;;;;;;;;;;;;;;;20.03;57.89;101647.03;7398950;19;1849;-49
2023/03/19 03:46:53;;;;;;;;;;;;;;;19.74;58.40;101642.13;7400905;19;2027;-49
2023/03/19 03:49:21;;;;;;;;;;;;;;;19.73;58.90;101651.16;7401935;19;1851;-49
2023/03/19 03:51:53;;;;;;;;;;;;;;;19.71;58.69;101641.47;7402150;19;1933;-49
2023/03/19 03:54:22;;;;;;;;;;;;;;;19.78;58.90;101643.59;7401526;19;1704;-49
2023/03/19 03:56:50;;;;;;;;;;;;;;;19.77;58.70;101663.34;7402117;19;2038;-50
2023/03/19 03:59:18;;;;;;;;;;;;;;;19.72;58.71;101649.44;7402690;19;1693;-49
2023/03/19 04:01:46;;;;;;;;;;;;;;;19.05;60.26;101650.88;7400422;19;2041;-49
2023/03/19 04:04:15;;;;;;;;;;;;;;;18.37;62.27;101649.56;7399326;19;1848;-50
2023/03/19 04:06:43;;;;;;;;;;;;;;;18.03;63.27;101667.16;7401507;19;1708;-50
2023/03/19 04:09:15;;;;;;;;;;;;;;;18.12;63.06;101650.44;7402370;19;1168;-50
2023/03/19 04:11:44;;;;;;;;;;;;;;;18.63;61.61;101661.06;7398961;19;1866;-49
2023/03/19 04:14:12;;;;;;;;;;;;;;;19.01;60.82;101654.75;7399347;19;1951;-49
2023/03/19 04:16:42;;;;;;;;;;;;;;;19.19;59.84;101651.69;7401067;19;1969;-49
2023/03/19 04:19:11;;;;;;;;;;;;;;;19.28;60.03;101677.81;7400901;19;2043;-49
2023/03/19 04:21:39;;;;;;;;;;;;;;;19.21;60.01;101660.47;7400434;19;1990;-49
2023/03/19 04:24:08;;;;;;;;;;;;;;;19.25;59.65;101645.84;7399558;19;1852;-50
2023/03/19 04:26:39;;;;;;;;;;;;;;;19.23;59.75;101669.25;7401105;19;979;-49
2023/03/19 04:29:08;;;;;;;;;;;;;;;19.17;60.26;101665.19;7401045;19;1421;-49
2023/03/19 04:31:37;;;;;;;;;;;;;;;19.17;59.81;101675.06;7397976;19;2029;-49
2023/03/19 04:34:05;;;;;;;;;;;;;;;19.04;60.46;101670.63;7341732;19;13550;-50
2023/03/19 04:36:34;;;;;;;;;;;;;;;19.10;60.65;101668.44;7400784;19;1017;-49
2023/03/19 04:39:02;;;;;;;;;;;;;;;19.13;60.20;101678.94;7399010;19;2135;-49
2023/03/19 04:41:31;;;;;;;;;;;;;;;19.08;60.62;101666.75;7399711;19;2165;-49
2023/03/19 04:44:02;;;;;;;;;;;;;;;19.03;60.27;101666.22;7397055;19;1842;-49
2023/03/19 04:46:30;;;;;;;;;;;;;;;19.01;60.17;101668.16;5340641;19;10000804;-50
2023/03/19 04:48:59;;;;;;;;;;;;;;;19.07;60.35;101669.53;7387913;19;1796;-50
2023/03/19 04:51:27;;;;;;;;;;;;;;;19.07;60.14;101678.44;7388866;19;1960;-49
2023/03/19 04:53:55;;;;;;;;;;;;;;;19.15;60.37;101687.75;7388007;19;1920;-49
2023/03/19 04:56:24;;;;;;;;;;;;;;;19.16;60.27;101673.34;7390090;19;2045;-51
2023/03/19 04:58:53;;;;;;;;;;;;;;;19.12;60.06;101690.63;7387470;19;1672;-50
2023/03/19 05:01:24;;;;;;;;;;;;;;;19.14;60.23;101691.38;7396657;19;1747;-49
2023/03/19 05:03:52;;;;;;;;;;;;;;;19.10;60.00;101685.41;7395626;19;1870;-49
2023/03/19 05:06:20;;;;;;;;;;;;;;;19.16;60.14;101673.34;7385057;19;2433;-49
2023/03/19 05:08:49;;;;;;;;;;;;;;;19.15;59.67;101671.66;7387303;19;2185;-49
2023/03/19 05:11:17;;;;;;;;;;;;;;;19.19;59.92;101662.41;7387349;19;1911;-49
2023/03/19 05:13:45;;;;;;;;;;;;;;;19.22;59.47;101673.75;7388291;19;2191;-49
2023/03/19 05:16:13;;;;;;;;;;;;;;;19.18;59.84;101664.25;7386921;19;1965;-49
2023/03/19 05:18:44;;;;;;;;;;;;;;;19.16;60.06;101674.22;7387427;19;1653;-50
2023/03/19 05:21:14;;;;;;;;;;;;;;;19.15;59.73;101672.50;7387295;19;2292;-50
2023/03/19 05:23:43;;;;;;;;;;;;;;;19.19;59.65;101673.13;7387489;19;1961;-49
2023/03/19 05:26:11;;;;;;;;;;;;;;;19.18;59.62;101679.44;7388545;19;1998;-49
2023/03/19 05:28:39;;;;;;;;;;;;;;;19.25;59.69;101678.03;7386476;19;2350;-50
2023/03/19 05:31:08;;;;;;;;;;;;;;;19.19;59.75;101683.84;7388115;19;1767;-50
2023/03/19 05:33:36;;;;;;;;;;;;;;;19.28;59.88;101667.94;7388472;19;1669;-49
2023/03/19 05:36:08;;;;;;;;;;;;;;;19.26;59.85;101674.41;7388332;19;1953;-50
2023/03/19 05:38:36;;;;;;;;;;;;;;;19.27;59.37;101665.38;7385765;19;2128;-50
2023/03/19 05:41:05;;;;;;;;;;;;;;;19.28;59.47;101672.44;7385990;19;1627;-49
2023/03/19 05:43:34;;;;;;;;;;;;;;;19.28;59.57;101670.63;7387628;19;1860;-50
2023/03/19 05:46:02;;;;;;;;;;;;;;;19.28;59.59;101673.31;7383867;19;1975;-49
2023/03/19 05:48:30;;;;;;;;;;;;;;;19.34;59.76;101669.31;7390289;19;1776;-50
2023/03/19 05:50:59;;;;;;;;;;;;;;;19.32;59.45;101683.78;7386754;19;1781;-49
2023/03/19 05:53:30;;;;;;;;;;;;;;;19.31;59.52;101674.03;7384849;19;2639;-50
2023/03/19 05:55:58;;;;;;;;;;;;;;;19.33;59.84;101664.91;7393865;19;1958;-50
2023/03/19 05:58:27;;;;;;;;;;;;;;;19.32;59.19;101667.69;7394568;19;2032;-49
2023/03/19 06:00:56;;;;;;;;;;;;;;;19.37;59.20;101674.41;7394594;19;1734;-50
2023/03/19 06:03:25;;;;;;;;;;;;;;;19.40;59.13;101668.00;7395441;19;1379;-50
2023/03/19 06:05:54;;;;;;;;;;;;;;;19.42;59.19;101668.72;7391024;19;2193;-49
2023/03/19 06:08:22;;;;;;;;;;;;;;;19.36;59.15;101669.16;7394728;19;1923;-49
2023/03/19 06:10:54;;;;;;;;;;;;;;;19.42;59.28;101660.69;7393499;19;2089;-50
2023/03/19 06:13:22;;;;;;;;;;;;;;;19.46;58.95;101671.06;7394549;19;1930;-50
2023/03/19 06:15:51;;;;;;;;;;;;;;;19.41;59.50;101667.00;7392591;19;1753;-49
2023/03/19 06:18:20;;;;;;;;;;;;;;;19.45;59.03;101687.25;7394956;19;1993;-49
2023/03/19 06:20:48;;;;;;;;;;;;;;;19.52;59.27;101660.81;7393284;19;2019;-49
2023/03/19 06:23:17;;;;;;;;;;;;;;;19.54;58.77;101677.69;7394235;19;1949;-49
2023/03/19 06:25:45;;;;;;;;;;;;;;;18.84;60.54;101666.75;7393604;19;1873;-50
2023/03/19 06:28:16;;;;;;;;;;;;;;;18.34;61.81;101683.72;7393003;19;1970;-50
2023/03/19 06:30:45;;;;;;;;;;;;;;;18.19;62.51;101678.50;7393390;19;2879;-50
2023/03/19 06:33:13;;;;;;;;;;;;;;;18.72;61.03;101693.53;7395514;19;2187;-49
2023/03/19 06:35:41;;;;;;;;;;;;;;;19.24;59.58;101676.34;7395574;19;1934;-49
2023/03/19 06:38:10;;;;;;;;;;;;;;;18.87;60.81;101685.25;7392742;19;1860;-50
2023/03/19 06:40:38;;;;;;;;;;;;;;;18.28;62.01;101687.69;7394224;19;1762;-49
2023/03/19 06:43:07;;;;;;;;;;;;;;;18.07;63.04;101684.72;7393256;19;2175;-50
2023/03/19 06:45:38;;;;;;;;;;;;;;;18.59;61.41;101680.16;7391121;19;1849;-50
2023/03/19 06:48:07;;;;;;;;;;;;;;;18.76;60.68;101679.81;7390611;19;2026;-50
2023/03/19 06:50:35;;;;;;;;;;;;;;;18.36;62.40;101690.69;7392035;19;1716;-50
2023/03/19 06:53:03;;;;;;;;;;;;;;;18.03;63.15;101699.28;7398461;19;1842;-50
2023/03/19 06:55:32;;;;;;;;;;;;;;;17.74;64.87;101667.31;7399388;19;2049;-50
2023/03/19 06:58:00;;;;;;;;;;;;;;;17.80;65.14;101704.34;7401430;19;2031;-50
2023/03/19 07:00:28;;;;;;;;;;;;;;;17.72;65.56;101701.34;7403306;19;1764;-50
2023/03/19 07:02:59;;;;;;;;;;;;;;;17.68;65.45;101689.13;7401760;19;1631;-50
2023/03/19 07:05:27;;;;;;;;;;;;;;;17.63;65.75;101699.31;7401042;19;1869;-50
2023/03/19 07:07:56;;;;;;;;;;;;;;;18.00;64.47;101694.97;7402414;19;1642;-50
2023/03/19 07:10:24;;;;;;;;;;;;;;;18.80;62.06;101683.13;7402622;19;1444;-50
2023/03/19 07:12:52;;;;;;;;;;;;;;;19.62;59.76;101680.63;7401047;19;2109;-49
2023/03/19 07:15:21;;;;;;;;;;;;;;;20.17;58.61;101681.72;7402740;19;2552;-50
2023/03/19 07:17:50;;;;;;;;;;;;;;;19.86;59.64;101685.97;7403348;19;1997;-50
2023/03/19 07:20:21;;;;;;;;;;;;;;;20.08;59.10;101697.72;7405669;19;1952;-49
2023/03/19 07:22:51;;;;;;;;;;;;;;;20.21;58.98;101699.31;7401397;19;1840;-51
2023/03/19 07:25:20;;;;;;;;;;;;;;;20.27;59.14;101684.53;7405690;19;1862;-50
2023/03/19 07:27:48;;;;;;;;;;;;;;;20.22;58.78;101687.59;7403812;19;2190;-50
2023/03/19 07:30:17;;;;;;;;;;;;;;;20.40;58.54;101689.78;7405082;19;1170;-50
2023/03/19 07:32:45;;;;;;;;;;;;;;;20.20;58.69;101686.00;7404897;19;1881;-50
2023/03/19 07:35:14;;;;;;;;;;;;;;;19.49;60.36;101691.41;7402104;19;1797;-51
2023/03/19 07:37:45;;;;;;;;;;;;;;;18.98;61.88;101688.97;7402900;19;1708;-50
2023/03/19 07:40:13;;;;;;;;;;;;;;;19.05;61.03;101709.00;7404229;19;1623;-50
2023/03/19 07:42:41;;;;;;;;;;;;;;;19.59;59.96;101702.31;7402910;19;1705;-50
2023/03/19 07:45:10;;;;;;;;;;;;;;;19.42;60.37;101691.03;7401402;19;1852;-50
2023/03/19 07:47:39;;;;;;;;;;;;;;;18.99;61.41;101694.22;7403676;19;1822;-50
2023/03/19 07:50:08;;;;;;;;;;;;;;;18.64;61.97;101703.00;7404044;19;2110;-51
2023/03/19 07:52:36;;;;;;;;;;;;;;;18.63;62.72;101692.38;7404011;19;1810;-51
2023/03/19 07:55:07;;;;;;;;;;;;;;;19.18;61.21;101682.13;7403256;19;2144;-50
2023/03/19 07:57:36;;;;;;;;;;;;;;;19.63;60.82;101674.28;7404269;19;2085;-50
2023/03/19 08:00:04;;;;;;;;;;;;;;;19.36;61.70;101686.13;7404355;19;1656;-51
2023/03/19 08:02:32;;;;;;;;;;;;;;;18.96;63.25;101683.75;7403534;19;2256;-50
2023/03/19 08:05:03;;;;;;;;;;;;;;;18.67;63.89;101689.34;7402147;19;2051;-51
2023/03/19 08:07:31;;;;;;;;;;;;;;;18.45;64.83;101683.84;7402761;19;1912;-50
2023/03/19 08:10:00;;;;;;;;;;;;;;;18.23;64.33;101682.69;7404788;19;1018;-50
2023/03/19 08:12:32;;;;;;;;;;;;;;;18.14;64.67;101680.63;7403100;19;2197;-49
2023/03/19 08:15:00;;;;;;;;;;;;;;;18.11;64.25;101675.50;7403286;19;1938;-50
2023/03/19 08:17:28;;;;;;;;;;;;;;;18.15;64.60;101665.47;7401057;19;2034;-50
2023/03/19 08:19:57;;;;;;;;;;;;;;;18.07;64.29;101671.34;7401490;19;1742;-50
2023/03/19 08:22:25;;;;;;;;;;;;;;;18.05;64.52;101665.25;7402077;19;2074;-50
2023/03/19 08:24:53;;;;;;;;;;;;;;;18.01;64.49;101664.59;7402012;19;1852;-50
2023/03/19 08:27:22;;;;;;;;;;;;;;;17.99;64.43;101665.66;7400990;19;2230;-49
2023/03/19 08:29:52;;;;;;;;;;;;;;;17.99;64.52;101661.16;7402273;19;2062;-50
2023/03/19 08:32:21;;;;;;;;;;;;;;;17.94;64.84;101663.28;7403800;19;2047;-50
2023/03/19 08:34:49;;;;;;;;;;;;;;;17.94;64.93;101660.63;7403559;19;979;-50
2023/03/19 08:37:17;;;;;;;;;;;;;;;17.93;64.46;101650.03;7401351;19;2123;-50
2023/03/19 08:39:46;;;;;;;;;;;;;;;17.91;64.43;101662.69;7401921;19;1845;-50
2023/03/19 08:42:14;;;;;;;;;;;;;;;17.90;64.47;101651.09;7400506;19;2515;-50
2023/03/19 08:44:43;;;;;;;;;;;;;;;17.93;64.33;101655.41;7403375;19;1860;-49
2023/03/19 08:47:14;;;;;;;;;;;;;;;17.97;64.75;101646.19;7400216;19;2723;-50
2023/03/19 08:49:42;;;;;;;;;;;;;;;18.00;64.52;101648.63;7401533;19;1947;-50
2023/03/19 08:52:10;;;;;;;;;;;;;;;17.95;64.13;101638.25;7401208;19;1983;-50
2023/03/19 08:54:39;;;;;;;;;;;;;;;17.94;64.32;101633.84;7402185;19;1815;-50
2023/03/19 08:57:07;;;;;;;;;;;;;;;17.93;64.54;101634.84;7401645;19;2108;-49
2023/03/19 08:59:35;;;;;;;;;;;;;;;17.92;65.01;101642.97;7403602;19;1082;-51
2023/03/19 09:02:04;;;;;;;;;;;;;;;17.88;64.50;101627.13;7401145;19;2145;-50
2023/03/19 09:04:37;;;;;;;;;;;;;;;17.90;65.11;101640.38;7402032;19;1680;-49
2023/03/19 09:07:06;;;;;;;;;;;;;;;17.85;64.98;101632.69;7400318;19;2010;-49
2023/03/19 09:09:34;;;;;;;;;;;;;;;17.82;65.16;101611.47;7402684;19;1043;-50
2023/03/19 09:12:02;;;;;;;;;;;;;;;17.82;65.05;101621.31;7401538;19;2076;-50
2023/03/19 09:14:31;;;;;;;;;;;;;;;17.81;65.12;101612.44;7401067;19;2084;-50
2023/03/19 09:16:59;;;;;;;;;;;;;;;17.83;64.80;101601.63;7401843;19;2098;-50
2023/03/19 09:19:27;;;;;;;;;;;;;;;17.81;65.09;101615.09;7401216;19;2049;-50
2023/03/19 09:21:58;;;;;;;;;;;;;;;17.80;65.06;101607.19;7400843;19;2142;-50
2023/03/19 09:24:27;;;;;;;;;;;;;;;17.80;65.18;101599.16;7400965;19;2093;-50
2023/03/19 09:26:55;;;;;;;;;;;;;;;17.79;65.08;101601.00;7398265;19;1919;-50
2023/03/19 09:29:23;;;;;;;;;;;;;;;17.80;65.19;101601.84;7399967;19;1034;-50
2023/03/19 09:31:52;;;;;;;;;;;;;;;17.73;65.25;101590.72;7399645;19;1910;-50
2023/03/19 09:34:20;;;;;;;;;;;;;;;17.79;65.12;101606.34;7400314;19;2059;-50
2023/03/19 09:36:48;;;;;;;;;;;;;;;17.77;65.06;101594.88;7402057;19;1101;-50
2023/03/19 09:39:19;;;;;;;;;;;;;;;17.78;64.96;101599.25;7398130;19;2098;-51
2023/03/19 09:42:02;;;;;;;;;;;;;;;17.78;65.13;101596.59;7397601;19;1982;-51
2023/03/19 09:44:32;;;;;;;;;;;;;;;17.75;64.88;101604.00;7399847;19;1805;-50
2023/03/19 09:47:03;;;;;;;;;;;;;;;17.77;65.08;101596.72;7397547;19;2213;-50
2023/03/19 09:49:34;;;;;;;;;;;;;;;17.74;64.88;101584.38;7399958;19;1947;-50
2023/03/19 09:52:07;;;;;;;;;;;;;;;17.76;65.22;101589.63;7401256;19;1936;-50
2023/03/19 09:54:41;;;;;;;;;;;;;;;17.73;64.89;101573.81;7400959;19;1785;-50
2023/03/19 09:57:10;;;;;;;;;;;;;;;17.76;64.79;101598.50;7400595;19;2096;-50
2023/03/19 09:59:39;;;;;;;;;;;;;;;17.76;65.23;101579.78;7401195;19;1022;-49
2023/03/19 10:02:21;;;;;;;;;;;;;;;17.74;65.46;101576.34;7399131;19;2150;-50
2023/03/19 10:04:54;;;;;;;;;;;;;;;17.73;64.74;101561.28;7401119;19;2093;-50
2023/03/19 10:07:38;;;;;;;;;;;;;;;17.73;65.17;101563.97;7398247;19;2142;-50
2023/03/19 10:10:22;;;;;;;;;;;;;;;17.72;65.20;101570.25;7399578;19;2033;-50
2023/03/19 10:12:58;;;;;;;;;;;;;;;17.69;65.57;101562.47;7399341;19;1951;-50
2023/03/19 10:15:29;;;;;;;;;;;;;;;17.67;65.12;101564.41;7399050;19;2035;-50
2023/03/19 10:17:59;;;;;;;;;;;;;;;17.67;65.38;101564.41;7400726;19;1970;-50
2023/03/19 10:20:35;;;;;;;;;;;;;;;17.64;65.18;101549.41;7399748;19;2565;-50
2023/03/19 10:23:10;;;;;;;;;;;;;;;17.61;65.26;101538.94;7399970;19;2063;-50
2023/03/19 10:25:39;;;;;;;;;;;;;;;17.62;65.34;101545.13;7399029;19;2052;-50
2023/03/19 10:28:15;;;;;;;;;;;;;;;17.64;65.12;101546.72;7398780;19;2694;-50
2023/03/19 10:30:46;;;;;;;;;;;;;;;17.64;65.00;101537.84;7399772;19;1776;-50
2023/03/19 10:33:19;;;;;;;;;;;;;;;17.62;65.28;101545.13;7400214;19;1118;-50
2023/03/19 10:35:49;;;;;;;;;;;;;;;17.60;64.88;101531.00;7396521;19;2307;-50
2023/03/19 10:38:21;;;;;;;;;;;;;;;17.59;64.88;101542.69;7398644;19;1755;-50
2023/03/19 10:40:53;;;;;;;;;;;;;;;17.61;65.16;101546.09;7399237;19;2035;-50
2023/03/19 10:43:26;;;;;;;;;;;;;;;17.58;65.21;101544.47;7406064;19;2540;-50
2023/03/19 10:45:54;;;;;;;;;;;;;;;17.54;65.23;101532.28;7406821;19;2170;-50
2023/03/19 10:48:26;;;;;;;;;;;;;;;17.55;65.11;101526.00;7407559;19;2097;-51
2023/03/19 10:50:56;;;;;;;;;;;;;;;17.58;65.27;101524.91;7407411;19;1169;-49
2023/03/19 10:53:35;;;;;;;;;;;;;;;17.58;65.35;101515.06;7406543;19;2180;-49
2023/03/19 10:56:05;;;;;;;;;;;;;;;17.58;64.81;101508.88;7403000;19;2051;-51
2023/03/19 10:58:39;;;;;;;;;;;;;;;17.59;64.73;101513.25;7405518;19;2041;-51
2023/03/19 11:01:08;;;;;;;;;;;;;;;17.58;65.35;101490.16;7406595;19;1776;-50
2023/03/19 11:03:37;;;;;;;;;;;;;;;17.57;64.94;101505.34;7407270;19;1022;-50
2023/03/19 11:06:07;;;;;;;;;;;;;;;17.59;65.19;101499.91;7405046;19;1937;-50
2023/03/19 11:08:36;;;;;;;;;;;;;;;17.58;65.40;101493.66;7406407;19;1678;-51
2023/03/19 11:11:05;;;;;;;;;;;;;;;17.55;65.31;101493.03;7406267;19;2100;-50
2023/03/19 11:13:36;;;;;;;;;;;;;;;17.54;65.24;101489.50;7404950;19;2101;-50
2023/03/19 11:16:05;;;;;;;;;;;;;;;17.57;65.26;101496.47;7407103;19;1038;-50
2023/03/19 11:18:38;;;;;;;;;;;;;;;17.54;65.02;101483.31;7406405;19;1094;-50
2023/03/19 11:21:09;;;;;;;;;;;;;;;17.52;65.18;101485.22;7406165;19;2146;-50
2023/03/19 11:23:40;;;;;;;;;;;;;;;17.53;64.85;101478.91;7405761;19;2241;-50
2023/03/19 11:26:09;;;;;;;;;;;;;;;17.52;65.23;101464.69;7404397;19;2228;-50
2023/03/19 11:28:44;;;;;;;;;;;;;;;17.50;65.15;101469.28;7405513;19;2006;-50
2023/03/19 11:31:17;;;;;;;;;;;;;;;17.49;65.24;101451.56;7405822;19;2008;-50
2023/03/19 11:33:51;;;;;;;;;;;;;;;17.47;65.05;101458.81;7406154;19;1011;-50
2023/03/19 11:36:22;;;;;;;;;;;;;;;17.49;65.19;101455.06;7403745;19;2108;-51
2023/03/19 11:38:59;;;;;;;;;;;;;;;17.44;65.07;101454.53;7402203;19;2041;-50
2023/03/19 11:41:32;;;;;;;;;;;;;;;17.46;64.99;101446.41;7403597;19;1947;-50
2023/03/19 11:44:06;;;;;;;;;;;;;;;17.47;65.00;101450.81;7403557;19;1795;-50
2023/03/19 11:46:37;;;;;;;;;;;;;;;17.43;65.44;101446.63;7402060;19;2045;-50
2023/03/19 11:49:15;;;;;;;;;;;;;;;17.45;65.41;101453.59;7405052;19;1950;-50
2023/03/19 11:51:48;;;;;;;;;;;;;;;17.47;65.13;101434.75;7405209;19;1906;-50
2023/03/19 11:54:22;;;;;;;;;;;;;;;17.43;65.33;101428.78;7403992;19;2451;-50
2023/03/19 11:56:56;;;;;;;;;;;;;;;17.45;65.43;101439.38;7403775;19;2080;-50
2023/03/19 11:59:47;;;;;;;;;;;;;;;17.45;65.52;101434.88;7404675;19;1028;-50
2023/03/19 12:02:30;;;;;;;;;;;;;;;17.45;65.28;101437.53;7403940;19;2140;-50
2023/03/19 12:05:05;;;;;;;;;;;;;;;17.45;65.29;101434.88;7403139;19;2043;-50
2023/03/19 12:07:38;;;;;;;;;;;;;;;17.45;65.59;101426.84;7403060;19;1971;-50
2023/03/19 12:10:19;;;;;;;;;;;;;;;17.43;65.47;101417.22;7404012;19;2017;-49
2023/03/19 12:12:51;;;;;;;;;;;;;;;17.43;65.17;101411.88;7403456;19;1774;-50
2023/03/19 12:15:26;;;;;;;;;;;;;;;17.44;65.57;101427.78;7403796;19;2036;-49
2023/03/19 12:18:00;;;;;;;;;;;;;;;17.43;65.63;101407.38;7403686;19;2004;-50
2023/03/19 12:20:38;;;;;;;;;;;;;;;17.43;65.57;101406.53;7403081;19;1871;-50
2023/03/19 12:23:08;;;;;;;;;;;;;;;17.43;65.48;101402.03;7402634;19;1870;-50
2023/03/19 12:25:45;;;;;;;;;;;;;;;17.44;65.33;101401.06;7404308;19;1997;-50
2023/03/19 12:28:18;;;;;;;;;;;;;;;17.40;65.04;101398.72;7401427;19;1844;-50
2023/03/19 12:30:56;;;;;;;;;;;;;;;17.40;65.05;101386.19;7403247;19;2235;-50
2023/03/19 12:33:33;;;;;;;;;;;;;;;17.42;65.50;101394.13;7403011;19;2336;-50
2023/03/19 12:36:03;;;;;;;;;;;;;;;17.41;65.64;101382.56;7401182;19;2296;-50
2023/03/19 12:38:35;;;;;;;;;;;;;;;17.40;65.36;101375.50;7402252;19;2131;-50
2023/03/19 12:41:06;;;;;;;;;;;;;;;17.39;65.25;101373.81;7403400;19;1993;-50
2023/03/19 12:43:37;;;;;;;;;;;;;;;17.38;65.74;101364.06;7402032;19;2180;-50
2023/03/19 12:46:10;;;;;;;;;;;;;;;17.39;65.08;101376.47;7402079;19;2017;-50
2023/03/19 12:48:42;;;;;;;;;;;;;;;17.36;65.23;101362.47;7403348;19;2056;-50
2023/03/19 12:51:14;;;;;;;;;;;;;;;17.37;65.55;101358.81;7403097;19;2052;-50
2023/03/19 12:53:47;;;;;;;;;;;;;;;17.35;65.18;101358.97;7403404;19;927;-50
2023/03/19 12:56:19;;;;;;;;;;;;;;;17.36;65.25;101363.31;7404149;19;1555;-50
2023/03/19 12:58:52;;;;;;;;;;;;;;;17.37;65.44;101366.84;7402230;19;1984;-50
2023/03/19 13:01:24;;;;;;;;;;;;;;;17.35;65.62;101348.25;7399747;19;2193;-50